sensor_id;sensor_type;location;lat;lon;timestamp;pressure;altitude;pressure_sealevel;temperature;humidity
49979;BME280;35869;50.990;6.962;2022-07-29T00:03:51;101181.75;;;20.08;52.35
49979;BME280;35869;50.990;6.962;2022-07-29T00:08:52;101181.50;;;20.00;54.03
49979;BME280;35869;50.990;6.962;2022-07-29T00:13:52;101175.63;;;19.96;52.66
49979;BME280;35869;50.990;6.962;2022-07-29T00:18:52;101174.06;;;19.94;52.77
49979;BME280;35869;50.990;6.962;2022-07-29T00:23:52;101169.25;;;19.88;52.88
49979;BME280;35869;50.990;6.962;2022-07-29T00:28:53;101158.81;;;19.86;53.66
49979;BME280;35869;50.990;6.962;2022-07-29T00:33:53;101147.75;;;19.81;53.72
49979;BME280;35869;50.990;6.962;2022-07-29T00:38:54;101153.66;;;19.85;53.47
49979;BME280;35869;50.990;6.962;2022-07-29T00:43:56;101147.16;;;19.78;53.75
49979;BME280;35869;50.990;6.962;2022-07-29T00:48:57;101145.50;;;19.77;54.84
49979;BME280;35869;50.990;6.962;2022-07-29T00:53:57;101143.06;;;19.74;53.90
49979;BME280;35869;50.990;6.962;2022-07-29T00:58:58;101132.66;;;19.72;54.94
49979;BME280;35869;50.990;6.962;2022-07-29T01:03:59;101113.69;;;19.67;54.50
49979;BME280;35869;50.990;6.962;2022-07-29T01:09:00;101116.22;;;19.68;53.88
49979;BME280;35869;50.990;6.962;2022-07-29T01:14:00;101114.16;;;19.61;54.94
49979;BME280;35869;50.990;6.962;2022-07-29T01:19:10;101103.16;;;19.67;54.97
49979;BME280;35869;50.990;6.962;2022-07-29T01:29:32;101101.09;;;19.59;55.28
49979;BME280;35869;50.990;6.962;2022-07-29T01:34:53;101094.16;;;19.58;55.53
49979;BME280;35869;50.990;6.962;2022-07-29T01:39:56;101092.78;;;19.53;55.02
49979;BME280;35869;50.990;6.962;2022-07-29T01:45:01;101093.25;;;19.58;54.44
49979;BME280;35869;50.990;6.962;2022-07-29T01:50:07;101086.91;;;19.49;54.99
49979;BME280;35869;50.990;6.962;2022-07-29T01:55:15;101088.19;;;19.43;55.49
49979;BME280;35869;50.990;6.962;2022-07-29T02:00:17;101095.88;;;19.47;55.89
49979;BME280;35869;50.990;6.962;2022-07-29T02:05:20;101101.25;;;19.45;55.46
49979;BME280;35869;50.990;6.962;2022-07-29T02:10:25;101088.31;;;19.42;55.95
49979;BME280;35869;50.990;6.962;2022-07-29T02:15:29;101084.47;;;19.46;56.68
49979;BME280;35869;50.990;6.962;2022-07-29T02:20:30;101079.22;;;19.46;55.94
49979;BME280;35869;50.990;6.962;2022-07-29T02:25:31;101074.66;;;19.37;55.93
49979;BME280;35869;50.990;6.962;2022-07-29T02:30:32;101077.50;;;19.34;56.11
49979;BME280;35869;50.990;6.962;2022-07-29T02:35:33;101074.38;;;19.29;57.54
49979;BME280;35869;50.990;6.962;2022-07-29T02:40:37;101068.84;;;19.21;57.21
49979;BME280;35869;50.990;6.962;2022-07-29T02:45:38;101077.47;;;19.23;56.80
49979;BME280;35869;50.990;6.962;2022-07-29T02:50:44;101079.72;;;19.16;57.62
49979;BME280;35869;50.990;6.962;2022-07-29T02:56:01;101092.38;;;19.00;57.10
49979;BME280;35869;50.990;6.962;2022-07-29T03:01:15;101099.75;;;18.95;56.51
49979;BME280;35869;50.990;6.962;2022-07-29T03:06:17;101106.31;;;18.89;56.31
49979;BME280;35869;50.990;6.962;2022-07-29T03:11:19;101121.03;;;18.91;56.30
49979;BME280;35869;50.990;6.962;2022-07-29T03:16:20;101124.47;;;18.81;56.34
49979;BME280;35869;50.990;6.962;2022-07-29T03:21:21;101126.56;;;18.76;56.35
49979;BME280;35869;50.990;6.962;2022-07-29T03:26:21;101122.78;;;18.80;56.55
49979;BME280;35869;50.990;6.962;2022-07-29T03:31:21;101117.56;;;18.67;57.26
49979;BME280;35869;50.990;6.962;2022-07-29T03:36:22;101126.44;;;18.53;58.35
49979;BME280;35869;50.990;6.962;2022-07-29T03:41:22;101131.03;;;18.62;57.49
49979;BME280;35869;50.990;6.962;2022-07-29T03:46:24;101128.09;;;18.54;56.92
49979;BME280;35869;50.990;6.962;2022-07-29T03:51:26;101132.63;;;18.52;57.50
49979;BME280;35869;50.990;6.962;2022-07-29T03:56:27;101127.59;;;18.49;56.52
49979;BME280;35869;50.990;6.962;2022-07-29T04:01:32;101122.84;;;18.54;56.68
49979;BME280;35869;50.990;6.962;2022-07-29T04:06:44;101133.81;;;18.48;56.65
49979;BME280;35869;50.990;6.962;2022-07-29T04:11:44;101139.03;;;18.61;56.82
49979;BME280;35869;50.990;6.962;2022-07-29T04:16:45;101136.50;;;18.59;56.06
49979;BME280;35869;50.990;6.962;2022-07-29T04:21:45;101138.22;;;18.48;56.20
49979;BME280;35869;50.990;6.962;2022-07-29T04:26:46;101137.78;;;18.54;56.31
49979;BME280;35869;50.990;6.962;2022-07-29T04:31:46;101132.28;;;18.57;56.36
49979;BME280;35869;50.990;6.962;2022-07-29T04:36:47;101139.78;;;18.50;56.24
49979;BME280;35869;50.990;6.962;2022-07-29T04:41:47;101139.16;;;18.59;56.09
49979;BME280;35869;50.990;6.962;2022-07-29T04:46:47;101140.94;;;18.46;56.58
49979;BME280;35869;50.990;6.962;2022-07-29T04:51:47;101136.72;;;18.56;57.04
49979;BME280;35869;50.990;6.962;2022-07-29T04:56:48;101147.88;;;18.60;56.40
49979;BME280;35869;50.990;6.962;2022-07-29T05:01:48;101148.09;;;18.57;56.70
49979;BME280;35869;50.990;6.962;2022-07-29T05:06:48;101161.88;;;18.60;56.31
49979;BME280;35869;50.990;6.962;2022-07-29T05:11:48;101166.09;;;18.63;56.26
49979;BME280;35869;50.990;6.962;2022-07-29T05:16:49;101162.41;;;18.65;56.49
49979;BME280;35869;50.990;6.962;2022-07-29T05:21:49;101160.94;;;18.61;56.50
49979;BME280;35869;50.990;6.962;2022-07-29T05:26:49;101166.50;;;18.70;56.23
49979;BME280;35869;50.990;6.962;2022-07-29T05:31:49;101168.00;;;18.61;56.92
49979;BME280;35869;50.990;6.962;2022-07-29T05:36:50;101169.16;;;18.70;56.24
49979;BME280;35869;50.990;6.962;2022-07-29T05:41:50;101162.97;;;18.71;55.73
49979;BME280;35869;50.990;6.962;2022-07-29T05:46:50;101174.41;;;18.70;56.92
49979;BME280;35869;50.990;6.962;2022-07-29T05:51:50;101191.50;;;18.77;56.02
49979;BME280;35869;50.990;6.962;2022-07-29T05:56:51;101211.19;;;18.71;57.00
49979;BME280;35869;50.990;6.962;2022-07-29T06:01:51;101209.69;;;18.80;55.72
49979;BME280;35869;50.990;6.962;2022-07-29T06:06:52;101207.53;;;18.98;55.03
49979;BME280;35869;50.990;6.962;2022-07-29T06:11:52;101220.09;;;18.94;54.86
49979;BME280;35869;50.990;6.962;2022-07-29T06:16:52;101226.22;;;18.95;55.16
49979;BME280;35869;50.990;6.962;2022-07-29T06:21:52;101224.03;;;19.12;55.95
49979;BME280;35869;50.990;6.962;2022-07-29T06:26:53;101240.06;;;19.09;54.86
49979;BME280;35869;50.990;6.962;2022-07-29T06:31:53;101240.69;;;19.13;55.33
49979;BME280;35869;50.990;6.962;2022-07-29T06:36:53;101240.25;;;19.19;55.29
49979;BME280;35869;50.990;6.962;2022-07-29T06:41:53;101238.91;;;19.13;55.34
49979;BME280;35869;50.990;6.962;2022-07-29T06:46:54;101233.00;;;19.34;54.34
49979;BME280;35869;50.990;6.962;2022-07-29T06:51:54;101225.56;;;19.28;54.82
49979;BME280;35869;50.990;6.962;2022-07-29T06:56:54;101221.31;;;19.38;54.41
49979;BME280;35869;50.990;6.962;2022-07-29T07:01:55;101213.50;;;19.36;53.91
49979;BME280;35869;50.990;6.962;2022-07-29T07:06:55;101218.44;;;19.41;54.35
49979;BME280;35869;50.990;6.962;2022-07-29T07:11:55;101227.09;;;19.43;54.69
49979;BME280;35869;50.990;6.962;2022-07-29T07:16:55;101232.56;;;19.40;55.58
49979;BME280;35869;50.990;6.962;2022-07-29T07:21:56;101232.34;;;19.43;55.70
49979;BME280;35869;50.990;6.962;2022-07-29T07:26:56;101233.75;;;19.36;58.23
49979;BME280;35869;50.990;6.962;2022-07-29T07:31:57;101226.25;;;19.42;57.28
49979;BME280;35869;50.990;6.962;2022-07-29T07:36:58;101221.81;;;19.43;56.97
49979;BME280;35869;50.990;6.962;2022-07-29T07:41:58;101236.09;;;19.52;56.85
49979;BME280;35869;50.990;6.962;2022-07-29T07:46:58;101241.38;;;19.52;57.27
49979;BME280;35869;50.990;6.962;2022-07-29T07:51:59;101232.53;;;19.53;56.95
49979;BME280;35869;50.990;6.962;2022-07-29T07:56:59;101233.56;;;19.50;58.72
49979;BME280;35869;50.990;6.962;2022-07-29T08:01:59;101232.28;;;19.56;57.53
49979;BME280;35869;50.990;6.962;2022-07-29T08:07:00;101236.84;;;19.54;57.30
49979;BME280;35869;50.990;6.962;2022-07-29T08:12:00;101231.31;;;19.57;57.63
49979;BME280;35869;50.990;6.962;2022-07-29T08:17:01;101228.25;;;19.63;56.80
49979;BME280;35869;50.990;6.962;2022-07-29T08:22:01;101234.16;;;19.66;58.23
49979;BME280;35869;50.990;6.962;2022-07-29T08:27:01;101226.97;;;19.68;57.82
49979;BME280;35869;50.990;6.962;2022-07-29T08:32:02;101214.75;;;19.67;58.13
49979;BME280;35869;50.990;6.962;2022-07-29T08:37:02;101219.81;;;19.70;57.29
49979;BME280;35869;50.990;6.962;2022-07-29T08:42:03;101217.69;;;19.87;56.97
49979;BME280;35869;50.990;6.962;2022-07-29T08:47:03;101216.91;;;19.74;57.35
49979;BME280;35869;50.990;6.962;2022-07-29T08:52:04;101218.38;;;19.78;56.87
49979;BME280;35869;50.990;6.962;2022-07-29T08:57:04;101202.69;;;19.87;56.94
49979;BME280;35869;50.990;6.962;2022-07-29T09:02:07;101216.28;;;19.94;57.87
49979;BME280;35869;50.990;6.962;2022-07-29T09:07:15;101229.22;;;19.97;57.83
49979;BME280;35869;50.990;6.962;2022-07-29T09:12:15;101224.81;;;20.09;58.37
49979;BME280;35869;50.990;6.962;2022-07-29T09:17:16;101223.75;;;20.11;59.50
49979;BME280;35869;50.990;6.962;2022-07-29T09:22:28;101224.47;;;20.13;60.83
49979;BME280;35869;50.990;6.962;2022-07-29T09:27:29;101222.81;;;20.23;60.61
49979;BME280;35869;50.990;6.962;2022-07-29T09:32:29;101220.88;;;20.26;59.75
49979;BME280;35869;50.990;6.962;2022-07-29T09:37:29;101226.50;;;20.21;60.38
49979;BME280;35869;50.990;6.962;2022-07-29T09:42:30;101220.66;;;20.29;59.85
49979;BME280;35869;50.990;6.962;2022-07-29T09:47:44;101218.88;;;20.40;59.49
49979;BME280;35869;50.990;6.962;2022-07-29T09:52:47;101233.84;;;20.40;60.39
49979;BME280;35869;50.990;6.962;2022-07-29T09:57:47;101228.25;;;20.56;60.00
49979;BME280;35869;50.990;6.962;2022-07-29T10:02:48;101232.94;;;20.63;60.40
49979;BME280;35869;50.990;6.962;2022-07-29T10:07:52;101238.13;;;20.76;60.23
49979;BME280;35869;50.990;6.962;2022-07-29T10:13:09;101241.94;;;20.83;60.98
49979;BME280;35869;50.990;6.962;2022-07-29T10:18:11;101236.25;;;20.99;60.01
49979;BME280;35869;50.990;6.962;2022-07-29T10:23:12;101232.53;;;21.13;59.79
49979;BME280;35869;50.990;6.962;2022-07-29T10:28:12;101221.53;;;21.40;59.08
49979;BME280;35869;50.990;6.962;2022-07-29T10:43:36;101229.59;;;21.70;58.37
49979;BME280;35869;50.990;6.962;2022-07-29T10:49:19;101227.00;;;21.80;58.47
49979;BME280;35869;50.990;6.962;2022-07-29T10:59:36;101217.41;;;22.42;57.08
49979;BME280;35869;50.990;6.962;2022-07-29T11:20:32;101210.72;;;23.47;54.94
49979;BME280;35869;50.990;6.962;2022-07-29T11:25:32;101209.91;;;23.76;54.52
49979;BME280;35869;50.990;6.962;2022-07-29T11:30:59;101203.97;;;23.91;53.91
49979;BME280;35869;50.990;6.962;2022-07-29T11:36:14;101200.31;;;24.12;52.10
49979;BME280;35869;50.990;6.962;2022-07-29T11:51:42;101200.03;;;24.80;50.19
49979;BME280;35869;50.990;6.962;2022-07-29T11:56:50;101201.66;;;25.18;48.81
49979;BME280;35869;50.990;6.962;2022-07-29T12:01:55;101202.66;;;25.17;49.53
49979;BME280;35869;50.990;6.962;2022-07-29T12:06:56;101196.59;;;24.97;47.96
49979;BME280;35869;50.990;6.962;2022-07-29T12:11:57;101192.16;;;25.69;47.00
49979;BME280;35869;50.990;6.962;2022-07-29T12:16:59;101200.06;;;25.61;46.92
49979;BME280;35869;50.990;6.962;2022-07-29T12:21:59;101192.41;;;25.75;46.32
49979;BME280;35869;50.990;6.962;2022-07-29T12:27:00;101192.06;;;25.78;46.43
49979;BME280;35869;50.990;6.962;2022-07-29T12:32:00;101194.97;;;26.11;45.57
49979;BME280;35869;50.990;6.962;2022-07-29T12:37:01;101191.06;;;25.97;45.77
49979;BME280;35869;50.990;6.962;2022-07-29T12:42:11;101195.63;;;25.87;44.10
49979;BME280;35869;50.990;6.962;2022-07-29T12:47:11;101192.84;;;26.49;43.58
49979;BME280;35869;50.990;6.962;2022-07-29T12:57:25;101174.25;;;26.65;43.73
49979;BME280;35869;50.990;6.962;2022-07-29T13:02:25;101175.84;;;26.16;43.61
49979;BME280;35869;50.990;6.962;2022-07-29T13:07:27;101180.25;;;27.09;41.52
49979;BME280;35869;50.990;6.962;2022-07-29T13:12:28;101175.72;;;27.10;42.83
49979;BME280;35869;50.990;6.962;2022-07-29T13:17:40;101173.47;;;26.81;42.29
49979;BME280;35869;50.990;6.962;2022-07-29T13:22:41;101178.69;;;26.99;42.13
49979;BME280;35869;50.990;6.962;2022-07-29T13:27:42;101183.56;;;27.12;42.10
49979;BME280;35869;50.990;6.962;2022-07-29T13:32:42;101175.47;;;26.87;42.19
49979;BME280;35869;50.990;6.962;2022-07-29T13:37:42;101176.81;;;26.83;42.33
49979;BME280;35869;50.990;6.962;2022-07-29T13:42:42;101179.28;;;26.76;43.32
49979;BME280;35869;50.990;6.962;2022-07-29T13:47:43;101172.06;;;26.61;43.46
49979;BME280;35869;50.990;6.962;2022-07-29T13:52:43;101170.84;;;26.97;43.17
49979;BME280;35869;50.990;6.962;2022-07-29T13:57:43;101171.41;;;27.09;43.85
49979;BME280;35869;50.990;6.962;2022-07-29T14:02:43;101171.91;;;27.29;43.31
49979;BME280;35869;50.990;6.962;2022-07-29T14:07:44;101183.25;;;27.55;43.46
49979;BME280;35869;50.990;6.962;2022-07-29T14:12:44;101166.91;;;27.42;43.35
49979;BME280;35869;50.990;6.962;2022-07-29T14:17:44;101173.09;;;27.34;43.03
49979;BME280;35869;50.990;6.962;2022-07-29T14:22:44;101179.22;;;27.19;42.90
49979;BME280;35869;50.990;6.962;2022-07-29T14:27:45;101173.53;;;26.97;43.15
49979;BME280;35869;50.990;6.962;2022-07-29T14:32:45;101180.16;;;27.01;43.11
49979;BME280;35869;50.990;6.962;2022-07-29T14:37:45;101172.22;;;27.18;42.90
49979;BME280;35869;50.990;6.962;2022-07-29T14:42:45;101181.94;;;27.35;43.00
49979;BME280;35869;50.990;6.962;2022-07-29T14:47:45;101187.25;;;27.10;43.01
49979;BME280;35869;50.990;6.962;2022-07-29T14:52:46;101178.75;;;27.23;43.47
49979;BME280;35869;50.990;6.962;2022-07-29T14:57:46;101185.41;;;27.11;41.51
49979;BME280;35869;50.990;6.962;2022-07-29T15:02:48;101185.72;;;27.08;42.57
49979;BME280;35869;50.990;6.962;2022-07-29T15:07:48;101192.50;;;27.02;42.44
49979;BME280;35869;50.990;6.962;2022-07-29T15:12:48;101198.91;;;27.09;41.88
49979;BME280;35869;50.990;6.962;2022-07-29T15:17:48;101188.06;;;27.11;41.24
49979;BME280;35869;50.990;6.962;2022-07-29T15:22:48;101190.78;;;26.85;41.73
49979;BME280;35869;50.990;6.962;2022-07-29T15:27:49;101194.03;;;27.05;42.90
49979;BME280;35869;50.990;6.962;2022-07-29T15:32:49;101191.00;;;27.00;42.34
49979;BME280;35869;50.990;6.962;2022-07-29T15:37:49;101189.63;;;26.79;42.16
49979;BME280;35869;50.990;6.962;2022-07-29T15:42:50;101195.75;;;26.64;41.80
49979;BME280;35869;50.990;6.962;2022-07-29T15:47:50;101191.97;;;26.82;40.92
49979;BME280;35869;50.990;6.962;2022-07-29T15:52:50;101200.94;;;26.39;42.16
49979;BME280;35869;50.990;6.962;2022-07-29T15:57:50;101192.13;;;26.13;41.66
49979;BME280;35869;50.990;6.962;2022-07-29T16:02:51;101188.91;;;26.27;41.83
49979;BME280;35869;50.990;6.962;2022-07-29T16:07:51;101190.03;;;26.24;40.99
49979;BME280;35869;50.990;6.962;2022-07-29T16:12:51;101185.22;;;26.28;40.87
49979;BME280;35869;50.990;6.962;2022-07-29T16:17:51;101185.59;;;26.07;39.48
49979;BME280;35869;50.990;6.962;2022-07-29T16:22:52;101185.59;;;26.07;40.63
49979;BME280;35869;50.990;6.962;2022-07-29T16:27:52;101189.22;;;25.98;40.91
49979;BME280;35869;50.990;6.962;2022-07-29T16:32:52;101190.84;;;25.55;40.43
49979;BME280;35869;50.990;6.962;2022-07-29T16:37:52;101195.47;;;25.71;39.60
49979;BME280;35869;50.990;6.962;2022-07-29T16:42:53;101187.34;;;25.72;40.84
49979;BME280;35869;50.990;6.962;2022-07-29T16:47:53;101196.41;;;25.62;41.71
49979;BME280;35869;50.990;6.962;2022-07-29T16:52:54;101202.22;;;25.39;40.93
49979;BME280;35869;50.990;6.962;2022-07-29T16:57:55;101209.03;;;25.24;41.46
49979;BME280;35869;50.990;6.962;2022-07-29T17:02:55;101206.00;;;25.19;41.57
49979;BME280;35869;50.990;6.962;2022-07-29T17:07:55;101210.25;;;24.84;42.08
49979;BME280;35869;50.990;6.962;2022-07-29T17:12:55;101217.84;;;24.97;42.12
49979;BME280;35869;50.990;6.962;2022-07-29T17:17:56;101212.53;;;25.07;41.99
49979;BME280;35869;50.990;6.962;2022-07-29T17:22:56;101234.88;;;24.86;42.86
49979;BME280;35869;50.990;6.962;2022-07-29T17:27:56;101239.69;;;25.00;42.88
49979;BME280;35869;50.990;6.962;2022-07-29T17:32:56;101232.03;;;24.70;43.42
49979;BME280;35869;50.990;6.962;2022-07-29T17:37:57;101236.69;;;24.86;43.53
49979;BME280;35869;50.990;6.962;2022-07-29T17:42:57;101233.59;;;24.90;43.13
49979;BME280;35869;50.990;6.962;2022-07-29T17:47:57;101240.56;;;24.91;43.65
49979;BME280;35869;50.990;6.962;2022-07-29T17:52:57;101245.88;;;24.91;44.65
49979;BME280;35869;50.990;6.962;2022-07-29T17:57:58;101250.56;;;24.80;44.16
49979;BME280;35869;50.990;6.962;2022-07-29T18:02:58;101253.94;;;24.82;44.68
49979;BME280;35869;50.990;6.962;2022-07-29T18:07:58;101260.25;;;24.81;44.76
49979;BME280;35869;50.990;6.962;2022-07-29T18:13:00;101254.66;;;24.74;44.23
49979;BME280;35869;50.990;6.962;2022-07-29T18:18:00;101263.84;;;24.80;44.27
49979;BME280;35869;50.990;6.962;2022-07-29T18:23:00;101266.22;;;24.83;45.04
49979;BME280;35869;50.990;6.962;2022-07-29T18:28:00;101267.56;;;24.69;45.61
49979;BME280;35869;50.990;6.962;2022-07-29T18:33:01;101274.16;;;24.65;45.15
49979;BME280;35869;50.990;6.962;2022-07-29T18:38:01;101276.00;;;24.55;45.72
49979;BME280;35869;50.990;6.962;2022-07-29T18:43:01;101271.00;;;24.52;46.59
49979;BME280;35869;50.990;6.962;2022-07-29T18:48:02;101272.53;;;24.44;46.26
49979;BME280;35869;50.990;6.962;2022-07-29T18:53:03;101276.31;;;24.42;46.67
49979;BME280;35869;50.990;6.962;2022-07-29T18:58:03;101278.97;;;24.32;48.17
49979;BME280;35869;50.990;6.962;2022-07-29T19:03:03;101284.06;;;24.16;47.40
49979;BME280;35869;50.990;6.962;2022-07-29T19:08:04;101284.47;;;24.02;47.61
49979;BME280;35869;50.990;6.962;2022-07-29T19:13:04;101283.38;;;24.04;49.39
49979;BME280;35869;50.990;6.962;2022-07-29T19:18:04;101285.34;;;23.92;49.93
49979;BME280;35869;50.990;6.962;2022-07-29T19:23:05;101285.31;;;23.83;50.18
49979;BME280;35869;50.990;6.962;2022-07-29T19:28:05;101285.47;;;23.72;50.68
49979;BME280;35869;50.990;6.962;2022-07-29T19:33:05;101286.69;;;23.58;51.52
49979;BME280;35869;50.990;6.962;2022-07-29T19:38:05;101292.13;;;23.47;50.94
49979;BME280;35869;50.990;6.962;2022-07-29T19:43:06;101304.38;;;23.38;51.90
49979;BME280;35869;50.990;6.962;2022-07-29T19:48:06;101308.69;;;23.29;52.09
49979;BME280;35869;50.990;6.962;2022-07-29T19:53:07;101312.31;;;23.19;52.26
49979;BME280;35869;50.990;6.962;2022-07-29T19:58:07;101321.47;;;23.05;52.59
49979;BME280;35869;50.990;6.962;2022-07-29T20:03:07;101323.25;;;22.95;52.97
49979;BME280;35869;50.990;6.962;2022-07-29T20:08:07;101330.97;;;22.86;52.33
49979;BME280;35869;50.990;6.962;2022-07-29T20:13:08;101329.38;;;22.74;53.88
49979;BME280;35869;50.990;6.962;2022-07-29T20:18:08;101337.16;;;22.66;52.96
49979;BME280;35869;50.990;6.962;2022-07-29T20:23:08;101333.75;;;22.54;53.96
49979;BME280;35869;50.990;6.962;2022-07-29T20:28:09;101348.72;;;22.44;53.68
49979;BME280;35869;50.990;6.962;2022-07-29T20:33:09;101347.84;;;22.34;54.99
49979;BME280;35869;50.990;6.962;2022-07-29T20:38:09;101342.47;;;22.24;54.21
49979;BME280;35869;50.990;6.962;2022-07-29T20:43:09;101352.84;;;22.16;54.55
49979;BME280;35869;50.990;6.962;2022-07-29T20:48:10;101344.47;;;22.11;55.77
49979;BME280;35869;50.990;6.962;2022-07-29T20:53:10;101352.88;;;22.05;55.36
49979;BME280;35869;50.990;6.962;2022-07-29T20:58:10;101355.81;;;21.91;55.59
49979;BME280;35869;50.990;6.962;2022-07-29T21:03:10;101354.63;;;21.83;56.07
49979;BME280;35869;50.990;6.962;2022-07-29T21:08:11;101356.47;;;21.72;56.58
49979;BME280;35869;50.990;6.962;2022-07-29T21:13:11;101374.66;;;21.65;56.69
49979;BME280;35869;50.990;6.962;2022-07-29T21:18:11;101372.16;;;21.64;56.34
49979;BME280;35869;50.990;6.962;2022-07-29T21:23:12;101374.06;;;21.62;55.61
49979;BME280;35869;50.990;6.962;2022-07-29T21:28:12;101372.88;;;21.54;56.45
49979;BME280;35869;50.990;6.962;2022-07-29T21:33:12;101387.91;;;21.54;57.06
49979;BME280;35869;50.990;6.962;2022-07-29T21:38:12;101392.81;;;21.59;55.69
49979;BME280;35869;50.990;6.962;2022-07-29T21:43:13;101396.31;;;21.48;54.72
49979;BME280;35869;50.990;6.962;2022-07-29T21:48:15;101401.63;;;21.48;55.63
49979;BME280;35869;50.990;6.962;2022-07-29T21:53:16;101402.22;;;21.40;54.84
49979;BME280;35869;50.990;6.962;2022-07-29T21:58:16;101406.16;;;21.46;54.28
49979;BME280;35869;50.990;6.962;2022-07-29T22:03:17;101402.81;;;21.33;54.85
49979;BME280;35869;50.990;6.962;2022-07-29T22:08:17;101407.53;;;21.29;55.09
49979;BME280;35869;50.990;6.962;2022-07-29T22:13:17;101402.81;;;21.33;54.98
49979;BME280;35869;50.990;6.962;2022-07-29T22:18:17;101398.72;;;21.28;55.18
49979;BME280;35869;50.990;6.962;2022-07-29T22:23:18;101407.34;;;21.19;55.09
49979;BME280;35869;50.990;6.962;2022-07-29T22:28:18;101407.09;;;21.22;55.52
49979;BME280;35869;50.990;6.962;2022-07-29T22:33:18;101398.09;;;21.25;56.45
49979;BME280;35869;50.990;6.962;2022-07-29T22:38:19;101409.75;;;21.22;57.32
49979;BME280;35869;50.990;6.962;2022-07-29T22:43:19;101400.50;;;21.06;56.34
49979;BME280;35869;50.990;6.962;2022-07-29T22:48:19;101396.66;;;21.10;56.20
49979;BME280;35869;50.990;6.962;2022-07-29T22:53:19;101398.94;;;21.14;57.68
49979;BME280;35869;50.990;6.962;2022-07-29T22:58:20;101389.69;;;21.09;57.64
49979;BME280;35869;50.990;6.962;2022-07-29T23:03:20;101378.28;;;21.08;57.98
49979;BME280;35869;50.990;6.962;2022-07-29T23:08:20;101377.06;;;21.01;58.49
49979;BME280;35869;50.990;6.962;2022-07-29T23:13:21;101373.31;;;20.92;58.42
49979;BME280;35869;50.990;6.962;2022-07-29T23:18:21;101365.84;;;20.75;59.07
49979;BME280;35869;50.990;6.962;2022-07-29T23:23:22;101365.75;;;20.65;59.98
49979;BME280;35869;50.990;6.962;2022-07-29T23:28:22;101362.81;;;20.57;60.36
49979;BME280;35869;50.990;6.962;2022-07-29T23:33:22;101360.38;;;20.43;60.12
49979;BME280;35869;50.990;6.962;2022-07-29T23:38:22;101359.38;;;20.33;60.98
49979;BME280;35869;50.990;6.962;2022-07-29T23:43:23;101359.84;;;20.27;60.73
49979;BME280;35869;50.990;6.962;2022-07-29T23:48:23;101354.16;;;20.20;61.31
49979;BME280;35869;50.990;6.962;2022-07-29T23:53:24;101353.09;;;20.22;61.28
49979;BME280;35869;50.990;6.962;2022-07-29T23:58:24;101344.41;;;20.09;61.46
